Time;durP1;ratioP1;P1;durP2;ratioP2;P2;SDS_P1;SDS_P2;PMS_P1;PMS_P2;Temp;Humidity;BMP_temperature;BMP_pressure;BME280_temperature;BME280_humidity;BME280_pressure;Samples;Min_cycle;Max_cycle;Signal;HPM_P1;HPM_P2
2021/04/25 00:00:23;;;;;;;16.73;9.30;;;;;;;;;;5100342;28;20087;-69
2021/04/25 00:02:50;;;;;;;14.13;9.30;;;;;;;;;;5097954;28;20478;-69
2021/04/25 00:05:17;;;;;;;13.13;8.93;;;;;;;;;;5087273;28;20034;-68
2021/04/25 00:07:43;;;;;;;15.13;9.13;;;;;;;;;;5103120;28;20028;-69
2021/04/25 00:10:10;;;;;;;17.35;8.98;;;;;;;;;;5099028;28;20044;-70
2021/04/25 00:12:40;;;;;;;14.07;9.63;;;;;;;;;;5090512;28;20446;-69
2021/04/25 00:15:06;;;;;;;17.05;9.05;;;;;;;;;;5109832;28;20030;-69
2021/04/25 00:17:32;;;;;;;12.98;8.88;;;;;;;;;;5101453;28;20413;-68
2021/04/25 00:19:59;;;;;;;13.98;9.18;;;;;;;;;;5104363;28;20020;-69
2021/04/25 00:22:25;;;;;;;14.25;10.10;;;;;;;;;;5076541;28;20032;-68
2021/04/25 00:24:51;;;;;;;13.20;8.25;;;;;;;;;;5095765;28;20028;-69
2021/04/25 00:27:17;;;;;;;13.73;9.13;;;;;;;;;;5102342;28;20040;-68
2021/04/25 00:29:43;;;;;;;16.45;10.30;;;;;;;;;;5104452;28;20512;-69
2021/04/25 00:32:09;;;;;;;16.15;10.40;;;;;;;;;;5111605;28;20100;-68
2021/04/25 00:34:35;;;;;;;19.85;12.50;;;;;;;;;;5101865;28;20031;-70
2021/04/25 00:37:01;;;;;;;16.73;11.70;;;;;;;;;;5109754;28;20401;-69
2021/04/25 00:39:27;;;;;;;16.48;11.30;;;;;;;;;;5110388;28;20095;-69
2021/04/25 00:41:53;;;;;;;18.17;12.40;;;;;;;;;;5105213;28;20378;-69
2021/04/25 00:44:19;;;;;;;22.17;12.05;;;;;;;;;;5109354;28;20039;-69
2021/04/25 00:46:45;;;;;;;20.13;13.52;;;;;;;;;;5112750;28;20031;-70
2021/04/25 00:49:11;;;;;;;19.50;13.70;;;;;;;;;;5113844;28;20073;-69
2021/04/25 00:51:37;;;;;;;22.48;12.57;;;;;;;;;;5096428;28;20028;-69
2021/04/25 00:54:04;;;;;;;19.33;13.38;;;;;;;;;;5111359;28;20430;-70
2021/04/25 00:56:31;;;;;;;24.85;13.82;;;;;;;;;;5103819;28;20490;-69
2021/04/25 00:58:57;;;;;;;20.73;12.50;;;;;;;;;;5112724;28;20024;-70
2021/04/25 01:01:26;;;;;;;17.80;11.88;;;;;;;;;;5106732;28;20027;-69
2021/04/25 01:03:52;;;;;;;19.70;12.15;;;;;;;;;;5113220;28;20031;-69
2021/04/25 01:06:19;;;;;;;19.83;11.27;;;;;;;;;;5103056;28;20081;-69
2021/04/25 01:08:45;;;;;;;17.30;10.45;;;;;;;;;;5109994;28;20067;-69
2021/04/25 01:11:11;;;;;;;17.50;10.75;;;;;;;;;;5099210;28;20035;-70
2021/04/25 01:13:37;;;;;;;17.20;10.50;;;;;;;;;;5109424;28;20063;-70
2021/04/25 01:16:03;;;;;;;16.77;10.13;;;;;;;;;;5110589;28;20024;-68
2021/04/25 01:18:29;;;;;;;13.55;9.70;;;;;;;;;;5114176;28;20102;-68
2021/04/25 01:21:05;;;;;;;15.88;9.85;;;;;;;;;;5102872;28;20394;-69
2021/04/25 01:23:32;;;;;;;16.85;10.55;;;;;;;;;;5095405;28;20032;-69
2021/04/25 01:25:58;;;;;;;14.95;10.57;;;;;;;;;;5101290;28;20148;-70
2021/04/25 01:28:24;;;;;;;19.52;10.77;;;;;;;;;;5110384;28;20024;-69
2021/04/25 01:30:50;;;;;;;17.92;10.55;;;;;;;;;;5109555;28;20115;-69
2021/04/25 01:33:16;;;;;;;18.33;10.25;;;;;;;;;;5113768;28;20031;-69
2021/04/25 01:35:43;;;;;;;18.98;11.38;;;;;;;;;;5107916;28;20435;-68
2021/04/25 01:38:09;;;;;;;18.08;10.13;;;;;;;;;;5113788;28;20050;-68
2021/04/25 01:40:35;;;;;;;15.00;9.65;;;;;;;;;;5098600;28;20110;-69
2021/04/25 01:43:01;;;;;;;16.27;11.05;;;;;;;;;;5114427;28;20026;-69
2021/04/25 01:45:27;;;;;;;18.77;10.55;;;;;;;;;;5090380;28;20431;-69
2021/04/25 01:47:55;;;;;;;22.88;11.70;;;;;;;;;;5108351;28;20058;-68
2021/04/25 01:50:22;;;;;;;19.90;11.05;;;;;;;;;;5106156;28;20481;-66
2021/04/25 01:52:48;;;;;;;22.65;10.70;;;;;;;;;;5112429;28;20032;-69
2021/04/25 01:55:14;;;;;;;19.52;10.57;;;;;;;;;;5110448;28;20012;-69
2021/04/25 01:57:41;;;;;;;21.40;11.48;;;;;;;;;;5094184;28;20440;-68
2021/04/25 02:00:08;;;;;;;21.85;11.63;;;;;;;;;;5099655;28;20423;-69
2021/04/25 02:02:35;;;;;;;21.35;11.38;;;;;;;;;;5111415;28;20055;-70
2021/04/25 02:05:01;;;;;;;20.52;11.50;;;;;;;;;;5107366;28;20027;-69
2021/04/25 02:07:27;;;;;;;18.98;12.10;;;;;;;;;;5103289;28;20036;-69
2021/04/25 02:09:53;;;;;;;21.83;12.05;;;;;;;;;;5106413;28;20079;-69
2021/04/25 02:12:19;;;;;;;23.05;10.68;;;;;;;;;;5094142;28;20032;-69
2021/04/25 02:14:45;;;;;;;20.83;11.80;;;;;;;;;;5102378;28;20032;-69
2021/04/25 02:17:11;;;;;;;16.33;9.98;;;;;;;;;;5113977;28;20076;-68
2021/04/25 02:19:37;;;;;;;15.68;10.45;;;;;;;;;;5104134;28;20099;-70
2021/04/25 02:22:05;;;;;;;16.35;10.82;;;;;;;;;;5109796;28;20023;-70
2021/04/25 02:24:31;;;;;;;19.58;9.98;;;;;;;;;;5111808;28;20034;-70
2021/04/25 02:26:57;;;;;;;18.77;10.35;;;;;;;;;;5109356;28;20443;-70
2021/04/25 02:29:24;;;;;;;19.05;11.15;;;;;;;;;;5111124;28;20035;-70
2021/04/25 02:31:50;;;;;;;19.38;10.95;;;;;;;;;;5101449;28;20108;-69
2021/04/25 02:34:16;;;;;;;17.70;11.25;;;;;;;;;;5112822;28;20035;-69
2021/04/25 02:36:42;;;;;;;16.02;9.90;;;;;;;;;;5111580;28;20110;-69
2021/04/25 02:39:08;;;;;;;20.02;11.20;;;;;;;;;;5112246;28;20035;-69
2021/04/25 02:41:35;;;;;;;14.93;9.32;;;;;;;;;;5108680;28;20066;-69
2021/04/25 02:44:01;;;;;;;18.60;10.23;;;;;;;;;;5111822;28;20104;-68
2021/04/25 02:46:27;;;;;;;20.15;10.70;;;;;;;;;;5099020;28;20074;-69
2021/04/25 02:48:53;;;;;;;20.60;10.73;;;;;;;;;;5112427;28;20111;-68
2021/04/25 02:51:19;;;;;;;17.00;11.75;;;;;;;;;;5107514;28;20028;-69
2021/04/25 02:53:45;;;;;;;17.38;11.13;;;;;;;;;;5113265;28;20034;-69
2021/04/25 02:56:11;;;;;;;19.95;10.93;;;;;;;;;;5098035;28;20527;-68
2021/04/25 02:58:37;;;;;;;21.10;10.75;;;;;;;;;;5103894;28;20074;-66
2021/04/25 03:01:03;;;;;;;16.67;10.50;;;;;;;;;;5106755;28;20079;-70
2021/04/25 03:03:29;;;;;;;19.15;11.50;;;;;;;;;;5112188;28;20031;-70
2021/04/25 03:05:57;;;;;;;23.70;10.35;;;;;;;;;;5106713;28;20100;-70
2021/04/25 03:08:23;;;;;;;19.02;10.95;;;;;;;;;;5111579;28;20042;-66
2021/04/25 03:10:49;;;;;;;17.70;10.70;;;;;;;;;;5108295;28;20031;-68
2021/04/25 03:13:15;;;;;;;17.63;10.48;;;;;;;;;;5103246;28;20424;-69
2021/04/25 03:15:42;;;;;;;18.98;11.32;;;;;;;;;;5112701;28;20094;-69
2021/04/25 03:18:08;;;;;;;22.45;10.90;;;;;;;;;;5106514;28;20384;-70
2021/04/25 03:20:34;;;;;;;21.58;11.35;;;;;;;;;;5102175;28;20024;-69
2021/04/25 03:23:00;;;;;;;15.27;10.20;;;;;;;;;;5100127;28;20107;-69
2021/04/25 03:25:26;;;;;;;16.52;11.02;;;;;;;;;;5110780;28;20070;-69
2021/04/25 03:27:52;;;;;;;18.25;10.95;;;;;;;;;;5106340;28;20023;-70
2021/04/25 03:30:19;;;;;;;14.75;9.45;;;;;;;;;;5110178;28;20031;-70
2021/04/25 03:32:45;;;;;;;15.40;11.10;;;;;;;;;;5100947;28;20520;-70
2021/04/25 03:35:12;;;;;;;17.63;10.40;;;;;;;;;;5111922;28;20038;-69
2021/04/25 03:37:38;;;;;;;21.70;12.32;;;;;;;;;;5111151;28;20428;-69
2021/04/25 03:40:06;;;;;;;16.38;10.45;;;;;;;;;;5108788;28;20020;-68
2021/04/25 03:42:32;;;;;;;20.95;11.05;;;;;;;;;;5102495;28;20384;-69
2021/04/25 03:44:58;;;;;;;22.83;12.05;;;;;;;;;;5111536;28;20039;-69
2021/04/25 03:47:24;;;;;;;16.83;10.48;;;;;;;;;;5107084;28;20512;-69
2021/04/25 03:49:50;;;;;;;17.23;10.73;;;;;;;;;;5110503;28;20050;-67
2021/04/25 03:52:17;;;;;;;22.27;11.30;;;;;;;;;;5102748;28;20035;-69
2021/04/25 03:54:43;;;;;;;14.57;10.20;;;;;;;;;;5110360;28;20072;-68
2021/04/25 03:57:09;;;;;;;23.50;10.32;;;;;;;;;;5109912;28;20016;-69
2021/04/25 03:59:35;;;;;;;19.13;11.10;;;;;;;;;;5109565;28;20019;-70
2021/04/25 04:02:01;;;;;;;19.25;10.75;;;;;;;;;;5104831;28;20027;-69
2021/04/25 04:04:28;;;;;;;21.75;11.85;;;;;;;;;;5107446;28;20028;-69
2021/04/25 04:06:54;;;;;;;15.90;10.30;;;;;;;;;;5095989;28;20031;-69
2021/04/25 04:09:20;;;;;;;18.00;10.70;;;;;;;;;;5105010;28;20047;-68
2021/04/25 04:11:46;;;;;;;20.98;11.85;;;;;;;;;;5094853;28;20055;-69
2021/04/25 04:14:12;;;;;;;20.95;10.85;;;;;;;;;;5106335;28;20031;-69
2021/04/25 04:16:38;;;;;;;18.77;11.55;;;;;;;;;;5111995;28;20413;-69
2021/04/25 04:19:05;;;;;;;19.65;11.18;;;;;;;;;;5116076;28;20023;-69
2021/04/25 04:21:32;;;;;;;19.13;11.02;;;;;;;;;;5116920;28;20477;-69
2021/04/25 04:23:58;;;;;;;22.48;11.98;;;;;;;;;;5111470;28;20032;-70
2021/04/25 04:26:24;;;;;;;22.50;11.73;;;;;;;;;;5110669;28;20118;-67
2021/04/25 04:28:50;;;;;;;21.77;10.93;;;;;;;;;;5114426;28;20028;-69
2021/04/25 04:31:16;;;;;;;21.48;11.73;;;;;;;;;;5106981;28;20039;-69
2021/04/25 04:33:43;;;;;;;26.40;13.18;;;;;;;;;;5117650;28;20031;-69
2021/04/25 04:36:09;;;;;;;19.00;12.20;;;;;;;;;;5117417;28;20024;-69
2021/04/25 04:38:35;;;;;;;23.73;12.63;;;;;;;;;;5115602;28;20019;-69
2021/04/25 04:41:01;;;;;;;21.17;11.55;;;;;;;;;;5100564;28;20142;-68
2021/04/25 04:43:27;;;;;;;20.88;13.60;;;;;;;;;;5116822;28;20039;-68
2021/04/25 04:45:53;;;;;;;24.83;12.35;;;;;;;;;;5109169;28;20042;-70
2021/04/25 04:48:19;;;;;;;24.33;13.50;;;;;;;;;;5116618;28;20081;-69
2021/04/25 04:50:46;;;;;;;21.95;12.60;;;;;;;;;;5115024;28;20036;-68
2021/04/25 04:53:12;;;;;;;21.25;13.00;;;;;;;;;;5105250;28;20024;-69
2021/04/25 04:55:38;;;;;;;25.83;14.45;;;;;;;;;;5110306;28;20104;-69
2021/04/25 04:58:04;;;;;;;17.38;13.27;;;;;;;;;;5114269;28;20028;-68
2021/04/25 05:00:30;;;;;;;21.35;13.05;;;;;;;;;;5100634;28;20032;-69
2021/04/25 05:02:56;;;;;;;20.20;12.35;;;;;;;;;;5102862;28;20403;-70
2021/04/25 05:05:22;;;;;;;23.05;13.05;;;;;;;;;;5110792;28;20023;-69
2021/04/25 05:07:48;;;;;;;24.10;13.18;;;;;;;;;;5118041;28;20023;-68
2021/04/25 05:10:14;;;;;;;28.38;13.98;;;;;;;;;;5102679;28;20135;-67
2021/04/25 05:12:40;;;;;;;23.33;13.20;;;;;;;;;;5110799;28;20032;-69
2021/04/25 05:15:07;;;;;;;22.92;13.80;;;;;;;;;;5112953;28;20519;-70
2021/04/25 05:17:33;;;;;;;23.00;13.25;;;;;;;;;;5118463;28;20016;-70
2021/04/25 05:20:00;;;;;;;22.30;13.38;;;;;;;;;;5115398;28;20028;-68
2021/04/25 05:22:26;;;;;;;24.52;13.85;;;;;;;;;;5115983;28;20034;-66
2021/04/25 05:24:52;;;;;;;24.85;13.88;;;;;;;;;;5115687;28;20369;-70
2021/04/25 05:27:19;;;;;;;26.30;13.40;;;;;;;;;;5114618;28;20105;-69
2021/04/25 05:29:45;;;;;;;21.02;15.65;;;;;;;;;;5113370;28;20566;-69
2021/04/25 05:32:11;;;;;;;23.05;14.45;;;;;;;;;;5106043;28;20066;-68
2021/04/25 05:34:37;;;;;;;23.17;13.93;;;;;;;;;;5083838;28;20393;-69
2021/04/25 05:37:04;;;;;;;20.63;13.85;;;;;;;;;;5103332;28;20106;-69
2021/04/25 05:39:30;;;;;;;22.52;13.73;;;;;;;;;;5114998;28;20382;-68
2021/04/25 05:41:56;;;;;;;22.35;13.75;;;;;;;;;;5107277;28;20051;-70
2021/04/25 05:44:22;;;;;;;27.23;15.23;;;;;;;;;;5095702;28;20034;-69
2021/04/25 05:46:48;;;;;;;25.25;15.63;;;;;;;;;;5109531;28;20022;-70
2021/04/25 05:49:14;;;;;;;24.75;13.88;;;;;;;;;;5095016;28;20024;-70
2021/04/25 05:51:40;;;;;;;25.63;14.88;;;;;;;;;;5099617;28;20032;-70
2021/04/25 05:54:06;;;;;;;24.88;14.38;;;;;;;;;;5095367;28;20032;-70
2021/04/25 05:56:33;;;;;;;18.77;13.75;;;;;;;;;;5113869;28;20042;-68
2021/04/25 05:58:59;;;;;;;24.25;14.77;;;;;;;;;;5113051;28;20027;-67
2021/04/25 06:01:25;;;;;;;37.47;15.05;;;;;;;;;;5098289;28;20031;-68
2021/04/25 06:03:51;;;;;;;30.45;14.95;;;;;;;;;;5097004;28;20028;-69
2021/04/25 06:06:17;;;;;;;28.52;14.23;;;;;;;;;;5102244;28;20067;-69
2021/04/25 06:08:43;;;;;;;26.17;14.25;;;;;;;;;;5099528;28;20084;-69
2021/04/25 06:11:10;;;;;;;27.08;15.50;;;;;;;;;;5108944;28;20102;-70
2021/04/25 06:13:36;;;;;;;25.00;13.63;;;;;;;;;;5115747;28;20020;-70
2021/04/25 06:16:02;;;;;;;26.42;13.75;;;;;;;;;;5107147;28;20047;-71
2021/04/25 06:18:28;;;;;;;24.63;15.20;;;;;;;;;;5094345;28;20144;-70
2021/04/25 06:20:55;;;;;;;19.38;13.45;;;;;;;;;;5104128;28;20030;-71
2021/04/25 06:23:21;;;;;;;25.75;14.57;;;;;;;;;;5101473;28;20140;-69
2021/04/25 06:25:47;;;;;;;24.42;14.15;;;;;;;;;;5109645;28;20028;-70
2021/04/25 06:28:14;;;;;;;27.17;14.30;;;;;;;;;;5094021;28;20045;-70
2021/04/25 06:30:40;;;;;;;25.63;13.68;;;;;;;;;;5109362;28;20052;-70
2021/04/25 06:33:06;;;;;;;28.88;14.50;;;;;;;;;;5095218;28;20289;-71
2021/04/25 06:35:32;;;;;;;23.10;13.68;;;;;;;;;;5113178;28;20024;-70
2021/04/25 06:38:00;;;;;;;23.65;12.75;;;;;;;;;;5112440;28;20020;-70
2021/04/25 06:40:26;;;;;;;23.70;13.15;;;;;;;;;;5099803;28;20054;-70
2021/04/25 06:42:52;;;;;;;25.48;14.23;;;;;;;;;;5104115;28;20028;-71
2021/04/25 06:45:19;;;;;;;25.48;12.82;;;;;;;;;;5093893;28;20027;-70
2021/04/25 06:47:46;;;;;;;19.95;13.18;;;;;;;;;;5095420;28;20441;-71
2021/04/25 06:50:14;;;;;;;23.42;13.18;;;;;;;;;;5107107;28;20017;-70
2021/04/25 06:52:44;;;;;;;24.73;14.35;;;;;;;;;;5108651;28;20039;-71
2021/04/25 06:55:10;;;;;;;29.13;14.13;;;;;;;;;;5096394;28;20102;-70
2021/04/25 06:57:37;;;;;;;24.85;14.65;;;;;;;;;;5101751;28;20027;-70
2021/04/25 07:00:05;;;;;;;23.95;12.98;;;;;;;;;;5093113;28;20057;-70
2021/04/25 07:02:31;;;;;;;24.92;12.70;;;;;;;;;;5094542;28;20028;-70
2021/04/25 07:04:57;;;;;;;22.70;13.73;;;;;;;;;;5097703;28;20084;-69
2021/04/25 07:07:23;;;;;;;22.25;12.85;;;;;;;;;;5104591;28;20058;-70
2021/04/25 07:09:49;;;;;;;30.15;13.35;;;;;;;;;;5102842;28;20052;-71
2021/04/25 07:12:15;;;;;;;21.83;13.20;;;;;;;;;;5102976;28;20065;-70
2021/04/25 07:14:41;;;;;;;28.33;11.57;;;;;;;;;;5094278;28;20028;-70
2021/04/25 07:17:07;;;;;;;28.13;12.00;;;;;;;;;;5098521;28;20051;-70
2021/04/25 07:19:33;;;;;;;19.17;11.32;;;;;;;;;;5100258;28;20035;-72
2021/04/25 07:22:00;;;;;;;24.27;11.52;;;;;;;;;;5105972;28;20031;-70
2021/04/25 07:24:26;;;;;;;29.50;10.80;;;;;;;;;;5099025;28;20382;-71
2021/04/25 07:26:52;;;;;;;22.83;12.60;;;;;;;;;;5094486;28;20099;-70
2021/04/25 07:29:18;;;;;;;28.30;12.18;;;;;;;;;;5107821;28;20024;-70
2021/04/25 07:31:44;;;;;;;28.65;13.57;;;;;;;;;;5105067;28;20047;-70
2021/04/25 07:34:11;;;;;;;29.20;12.98;;;;;;;;;;5109898;28;20473;-70
2021/04/25 07:36:37;;;;;;;21.48;12.98;;;;;;;;;;5103780;28;20031;-70
2021/04/25 07:39:04;;;;;;;23.35;13.07;;;;;;;;;;5093546;28;20024;-70
2021/04/25 07:41:30;;;;;;;18.40;11.88;;;;;;;;;;5103048;28;20420;-70
2021/04/25 07:43:57;;;;;;;22.17;14.45;;;;;;;;;;5095553;28;20395;-71
2021/04/25 07:46:23;;;;;;;22.50;11.43;;;;;;;;;;5092849;28;20020;-69
2021/04/25 07:48:49;;;;;;;24.98;12.15;;;;;;;;;;5107567;28;20051;-70
2021/04/25 07:51:15;;;;;;;19.45;11.38;;;;;;;;;;5096190;28;20102;-69
2021/04/25 07:53:41;;;;;;;22.52;11.82;;;;;;;;;;5096552;28;20048;-71
2021/04/25 07:56:07;;;;;;;19.15;9.88;;;;;;;;;;5079122;28;20020;-69
2021/04/25 07:58:33;;;;;;;17.77;10.57;;;;;;;;;;5092665;28;20020;-69
2021/04/25 08:01:00;;;;;;;16.30;10.38;;;;;;;;;;5105172;28;20379;-71
2021/04/25 08:03:26;;;;;;;16.95;9.43;;;;;;;;;;5100176;28;20039;-70
2021/04/25 08:05:52;;;;;;;13.70;9.25;;;;;;;;;;5111791;28;20034;-70
2021/04/25 08:08:18;;;;;;;14.18;8.70;;;;;;;;;;5100954;28;20122;-69
2021/04/25 08:10:45;;;;;;;14.35;8.45;;;;;;;;;;5099843;28;20500;-70
2021/04/25 08:13:11;;;;;;;16.90;8.60;;;;;;;;;;5105947;28;20019;-70
2021/04/25 08:15:37;;;;;;;16.40;10.02;;;;;;;;;;5098055;28;20398;-70
2021/04/25 08:18:03;;;;;;;14.05;8.80;;;;;;;;;;5101685;28;20020;-69
2021/04/25 08:20:29;;;;;;;17.98;8.93;;;;;;;;;;5093152;28;20032;-70
2021/04/25 08:22:55;;;;;;;19.10;10.02;;;;;;;;;;5105134;28;20662;-70
2021/04/25 08:25:22;;;;;;;16.27;8.30;;;;;;;;;;5092781;28;20034;-70
2021/04/25 08:27:48;;;;;;;17.70;9.70;;;;;;;;;;5099211;28;20076;-71
2021/04/25 08:30:14;;;;;;;15.43;9.20;;;;;;;;;;5103240;28;20108;-71
2021/04/25 08:32:40;;;;;;;14.50;9.98;;;;;;;;;;5107916;28;20384;-70
2021/04/25 08:35:07;;;;;;;13.63;8.40;;;;;;;;;;5092953;28;20441;-68
2021/04/25 08:37:33;;;;;;;20.92;8.68;;;;;;;;;;5103187;28;20030;-70
2021/04/25 08:39:59;;;;;;;16.80;8.40;;;;;;;;;;5105355;28;20035;-69
2021/04/25 08:42:25;;;;;;;16.98;9.32;;;;;;;;;;5099368;28;20076;-70
2021/04/25 08:44:53;;;;;;;13.35;9.27;;;;;;;;;;5093368;28;20028;-70
2021/04/25 08:47:20;;;;;;;15.15;8.30;;;;;;;;;;5095606;28;20024;-70
2021/04/25 08:49:48;;;;;;;15.63;8.18;;;;;;;;;;5104545;28;20382;-71
2021/04/25 08:52:15;;;;;;;17.30;8.55;;;;;;;;;;5096326;28;20059;-71
2021/04/25 08:54:41;;;;;;;16.48;8.65;;;;;;;;;;5106311;28;20032;-70
2021/04/25 08:57:08;;;;;;;15.55;9.30;;;;;;;;;;5095508;28;20024;-71
2021/04/25 08:59:35;;;;;;;14.80;7.75;;;;;;;;;;5111648;28;20024;-71
2021/04/25 09:02:01;;;;;;;14.05;8.85;;;;;;;;;;5098685;28;20061;-70
2021/04/25 09:04:27;;;;;;;19.00;9.25;;;;;;;;;;5077404;28;20060;-71
2021/04/25 09:06:56;;;;;;;19.50;9.45;;;;;;;;;;5113124;28;20100;-71
2021/04/25 09:09:22;;;;;;;16.60;9.20;;;;;;;;;;5112279;28;20071;-70
2021/04/25 09:11:51;;;;;;;20.80;11.43;;;;;;;;;;5115506;28;20020;-71
2021/04/25 09:14:25;;;;;;;21.10;11.27;;;;;;;;;;5111515;28;20040;-70
2021/04/25 09:16:51;;;;;;;23.55;10.27;;;;;;;;;;5098889;28;20054;-69
2021/04/25 09:19:17;;;;;;;16.35;10.10;;;;;;;;;;5110459;28;20024;-70
2021/04/25 09:21:56;;;;;;;16.45;10.13;;;;;;;;;;5106710;28;20428;-70
2021/04/25 09:24:23;;;;;;;18.27;10.82;;;;;;;;;;5109848;28;20015;-71
2021/04/25 09:26:50;;;;;;;17.13;9.75;;;;;;;;;;5099068;28;20062;-71
2021/04/25 09:29:17;;;;;;;22.67;12.85;;;;;;;;;;5104364;28;20078;-71
2021/04/25 09:31:43;;;;;;;20.85;10.80;;;;;;;;;;5096162;28;20505;-70
2021/04/25 09:34:09;;;;;;;21.05;12.75;;;;;;;;;;5107098;28;20115;-69
2021/04/25 09:36:38;;;;;;;18.88;11.45;;;;;;;;;;5102354;28;20024;-70
2021/04/25 09:39:12;;;;;;;19.48;10.52;;;;;;;;;;5100841;28;20024;-72
2021/04/25 09:41:38;;;;;;;19.73;10.43;;;;;;;;;;5104466;28;20019;-72
2021/04/25 09:44:05;;;;;;;18.15;9.60;;;;;;;;;;5101040;28;20502;-71
2021/04/25 09:46:50;;;;;;;18.08;8.73;;;;;;;;;;5102509;28;20493;-71
2021/04/25 09:49:34;;;;;;;11.13;6.85;;;;;;;;;;5100424;28;20089;-71
2021/04/25 09:52:00;;;;;;;17.13;9.15;;;;;;;;;;5109223;28;20028;-71
2021/04/25 09:54:27;;;;;;;11.82;7.10;;;;;;;;;;5086926;28;20385;-70
2021/04/25 09:56:54;;;;;;;12.00;5.85;;;;;;;;;;5113365;28;20027;-72
2021/04/25 09:59:20;;;;;;;8.90;5.38;;;;;;;;;;5097967;28;20028;-70
2021/04/25 10:01:46;;;;;;;10.88;5.18;;;;;;;;;;5102543;28;20028;-70
2021/04/25 10:04:32;;;;;;;13.63;5.28;;;;;;;;;;5103637;28;20024;-71
2021/04/25 10:06:58;;;;;;;12.32;5.38;;;;;;;;;;5105781;28;20150;-71
2021/04/25 10:09:25;;;;;;;8.95;4.90;;;;;;;;;;5099264;28;20079;-70
2021/04/25 10:11:53;;;;;;;11.50;4.55;;;;;;;;;;5107571;28;20130;-71
2021/04/25 10:14:20;;;;;;;11.57;5.25;;;;;;;;;;5099788;28;20479;-70
2021/04/25 10:16:46;;;;;;;13.05;5.30;;;;;;;;;;5103463;28;20023;-70
2021/04/25 10:19:13;;;;;;;12.50;6.82;;;;;;;;;;5101328;28;20036;-71
2021/04/25 10:21:39;;;;;;;8.07;5.38;;;;;;;;;;5097602;28;20496;-70
2021/04/25 10:24:06;;;;;;;16.10;5.25;;;;;;;;;;5108964;28;20027;-72
2021/04/25 10:26:37;;;;;;;10.70;5.88;;;;;;;;;;5102495;28;20076;-68
2021/04/25 10:29:05;;;;;;;12.70;6.18;;;;;;;;;;5101264;28;20475;-70
2021/04/25 10:31:35;;;;;;;7.72;5.80;;;;;;;;;;5100684;28;20027;-68
2021/04/25 10:34:05;;;;;;;11.10;6.25;;;;;;;;;;5098550;28;20032;-69
2021/04/25 10:39:31;;;;;;;13.52;6.43;;;;;;;;;;5096370;28;20046;-71
2021/04/25 10:42:15;;;;;;;11.23;6.70;;;;;;;;;;5097026;28;20028;-67
2021/04/25 10:45:01;;;;;;;8.32;6.22;;;;;;;;;;5101375;28;20068;-68
2021/04/25 10:47:34;;;;;;;12.32;5.80;;;;;;;;;;5097384;28;20035;-70
2021/04/25 10:50:01;;;;;;;12.32;6.28;;;;;;;;;;5096692;28;20077;-69
2021/04/25 10:52:27;;;;;;;15.82;7.07;;;;;;;;;;5100705;28;20058;-71
2021/04/25 10:55:12;;;;;;;12.73;6.68;;;;;;;;;;5105745;28;20425;-72
2021/04/25 10:58:00;;;;;;;13.32;7.63;;;;;;;;;;5108140;28;20024;-69
2021/04/25 11:00:40;;;;;;;25.13;10.20;;;;;;;;;;5103421;28;20498;-69
2021/04/25 11:03:11;;;;;;;13.43;7.88;;;;;;;;;;5108668;28;20024;-69
2021/04/25 11:08:04;;;;;;;15.85;8.88;;;;;;;;;;5099862;28;20488;-71
2021/04/25 11:10:56;;;;;;;13.75;6.72;;;;;;;;;;5113770;28;20054;-67
2021/04/25 11:13:45;;;;;;;10.27;7.00;;;;;;;;;;5095097;28;20036;-70
2021/04/25 11:16:15;;;;;;;10.25;6.97;;;;;;;;;;5108635;28;20045;-67
2021/04/25 11:18:55;;;;;;;22.27;8.25;;;;;;;;;;5093555;28;20050;-69
2021/04/25 11:21:42;;;;;;;13.57;6.07;;;;;;;;;;5105956;28;20470;-69
2021/04/25 11:24:09;;;;;;;12.77;6.32;;;;;;;;;;5108922;28;20313;-69
2021/04/25 11:26:38;;;;;;;10.65;5.30;;;;;;;;;;5107891;28;20027;-68
2021/04/25 11:29:04;;;;;;;10.88;5.55;;;;;;;;;;5105801;28;20027;-69
2021/04/25 11:31:50;;;;;;;12.45;6.82;;;;;;;;;;5100176;28;20047;-68
2021/04/25 11:34:29;;;;;;;13.05;6.25;;;;;;;;;;5100554;28;20107;-68
2021/04/25 11:37:05;;;;;;;13.02;6.68;;;;;;;;;;5097482;28;20474;-67
2021/04/25 11:39:42;;;;;;;8.40;5.95;;;;;;;;;;5100650;28;20042;-68
2021/04/25 11:42:09;;;;;;;10.82;6.22;;;;;;;;;;5105056;28;20030;-69
2021/04/25 11:44:36;;;;;;;8.18;5.35;;;;;;;;;;5093665;28;20090;-69
2021/04/25 11:47:24;;;;;;;11.48;6.50;;;;;;;;;;5100594;28;20489;-68
2021/04/25 11:49:52;;;;;;;12.88;6.38;;;;;;;;;;5101867;28;20036;-70
2021/04/25 11:52:18;;;;;;;13.77;6.10;;;;;;;;;;5098017;28;20383;-69
2021/04/25 11:54:45;;;;;;;11.30;7.60;;;;;;;;;;5096509;28;20056;-68
2021/04/25 11:57:13;;;;;;;10.52;5.88;;;;;;;;;;5093504;28;20016;-70
2021/04/25 11:59:54;;;;;;;12.35;6.25;;;;;;;;;;5098809;28;20027;-68
2021/04/25 12:02:21;;;;;;;13.13;6.82;;;;;;;;;;5111930;28;20055;-69
2021/04/25 12:04:48;;;;;;;13.95;7.43;;;;;;;;;;5103340;28;20037;-68
2021/04/25 12:07:30;;;;;;;17.35;6.88;;;;;;;;;;5102666;28;20102;-70
2021/04/25 12:09:56;;;;;;;395.35;79.60;;;;;;;;;;5100896;28;20043;-67
2021/04/25 12:12:22;;;;;;;17.10;9.35;;;;;;;;;;5110918;28;20035;-67
2021/04/25 12:14:58;;;;;;;76.05;25.83;;;;;;;;;;5097368;28;20019;-63
2021/04/25 12:17:24;;;;;;;165.43;51.58;;;;;;;;;;5100580;28;20472;-66
2021/04/25 12:19:50;;;;;;;30.20;12.35;;;;;;;;;;5104226;28;20024;-66
2021/04/25 12:22:16;;;;;;;25.67;9.27;;;;;;;;;;5092540;28;20096;-64
2021/04/25 12:24:42;;;;;;;140.73;40.90;;;;;;;;;;5092682;28;20050;-65
2021/04/25 12:27:08;;;;;;;47.58;14.38;;;;;;;;;;5108884;28;20019;-65
2021/04/25 12:29:38;;;;;;;43.67;13.95;;;;;;;;;;5099845;28;20034;-66
2021/04/25 12:32:05;;;;;;;25.20;11.07;;;;;;;;;;5102179;28;20521;-65
2021/04/25 12:34:32;;;;;;;10.00;5.68;;;;;;;;;;5098050;28;20029;-66
2021/04/25 12:36:59;;;;;;;16.08;7.63;;;;;;;;;;5099950;28;20016;-66
2021/04/25 12:39:41;;;;;;;15.68;5.75;;;;;;;;;;5101084;28;20020;-64
2021/04/25 12:42:07;;;;;;;37.70;14.60;;;;;;;;;;5116274;28;20205;-66
2021/04/25 12:44:37;;;;;;;30.67;9.52;;;;;;;;;;5101495;28;20032;-66
2021/04/25 12:47:04;;;;;;;17.92;8.25;;;;;;;;;;5111891;28;20019;-66
2021/04/25 12:49:36;;;;;;;11.20;5.65;;;;;;;;;;5100722;28;20023;-66
2021/04/25 12:52:03;;;;;;;12.93;6.43;;;;;;;;;;5105134;28;20020;-66
2021/04/25 12:54:37;;;;;;;15.10;6.20;;;;;;;;;;5111624;28;20020;-67
2021/04/25 12:57:03;;;;;;;15.45;7.13;;;;;;;;;;5096578;28;20203;-69
2021/04/25 12:59:37;;;;;;;53.97;21.67;;;;;;;;;;5101453;28;20359;-69
2021/04/25 13:02:04;;;;;;;21.77;9.00;;;;;;;;;;5114645;28;20024;-66
2021/04/25 13:04:46;;;;;;;35.10;13.85;;;;;;;;;;5097223;28;20501;-69
2021/04/25 13:07:15;;;;;;;9.35;5.10;;;;;;;;;;5114230;28;20097;-69
2021/04/25 13:09:41;;;;;;;9.40;4.60;;;;;;;;;;5102083;28;20501;-63
2021/04/25 13:12:21;;;;;;;10.27;4.30;;;;;;;;;;5114997;28;20039;-63
2021/04/25 13:15:21;;;;;;;8.02;4.00;;;;;;;;;;5102281;28;20063;-71
2021/04/25 13:18:06;;;;;;;6.40;4.40;;;;;;;;;;5089020;28;20055;-68
2021/04/25 13:20:35;;;;;;;8.90;4.38;;;;;;;;;;5107090;28;20034;-69
2021/04/25 13:23:06;;;;;;;8.05;4.20;;;;;;;;;;5110642;28;20026;-71
2021/04/25 13:25:38;;;;;;;7.40;4.22;;;;;;;;;;5109358;28;20028;-70
2021/04/25 13:28:05;;;;;;;8.50;4.38;;;;;;;;;;5092035;28;20019;-72
2021/04/25 13:30:42;;;;;;;10.02;3.95;;;;;;;;;;5103213;28;20030;-71
2021/04/25 13:33:11;;;;;;;8.80;4.53;;;;;;;;;;5109368;28;20023;-70
2021/04/25 13:35:37;;;;;;;7.40;4.45;;;;;;;;;;5093650;28;20161;-69
2021/04/25 13:38:03;;;;;;;9.02;4.80;;;;;;;;;;5104111;28;20450;-74
2021/04/25 13:40:31;;;;;;;9.15;5.40;;;;;;;;;;5095324;28;20027;-72
2021/04/25 13:42:57;;;;;;;8.63;5.00;;;;;;;;;;5112688;28;20377;-72
2021/04/25 13:45:24;;;;;;;8.02;5.50;;;;;;;;;;5099064;28;20032;-74
2021/04/25 13:47:50;;;;;;;6.55;4.47;;;;;;;;;;5110604;28;20024;-71
2021/04/25 13:50:16;;;;;;;8.23;4.70;;;;;;;;;;5101790;28;20032;-73
2021/04/25 13:52:42;;;;;;;7.15;4.80;;;;;;;;;;5106704;28;20110;-73
2021/04/25 13:55:09;;;;;;;9.10;5.00;;;;;;;;;;5097280;28;20020;-72
2021/04/25 13:57:35;;;;;;;8.82;4.80;;;;;;;;;;5083926;28;20032;-71
2021/04/25 14:00:01;;;;;;;7.18;4.38;;;;;;;;;;5109717;28;20031;-72
2021/04/25 14:02:28;;;;;;;12.52;5.40;;;;;;;;;;5100915;28;20490;-72
2021/04/25 14:04:54;;;;;;;7.07;5.45;;;;;;;;;;5099729;28;20028;-72
2021/04/25 14:07:20;;;;;;;10.30;5.60;;;;;;;;;;5098790;28;20066;-71
2021/04/25 14:09:46;;;;;;;6.78;4.20;;;;;;;;;;5104253;28;20048;-71
2021/04/25 14:12:13;;;;;;;8.07;4.97;;;;;;;;;;5095580;28;20028;-72
2021/04/25 14:14:39;;;;;;;7.68;4.35;;;;;;;;;;5100715;28;20046;-72
2021/04/25 14:17:05;;;;;;;9.85;5.68;;;;;;;;;;5096768;28;20490;-71
2021/04/25 14:19:31;;;;;;;11.05;4.38;;;;;;;;;;5113686;28;20034;-71
2021/04/25 14:21:57;;;;;;;10.73;5.00;;;;;;;;;;5096384;28;20410;-70
2021/04/25 14:24:23;;;;;;;10.70;4.93;;;;;;;;;;5113305;28;20020;-71
2021/04/25 14:26:51;;;;;;;7.90;4.55;;;;;;;;;;5113297;28;20035;-71
2021/04/25 14:29:17;;;;;;;9.10;4.85;;;;;;;;;;5097774;28;20027;-70
2021/04/25 14:31:43;;;;;;;8.25;5.38;;;;;;;;;;5106749;28;20036;-71